Time;durP1;ratioP1;P1;durP2;ratioP2;P2;SDS_P1;SDS_P2;PMS_P1;PMS_P2;Temp;Humidity;BMP_temperature;BMP_pressure;BME280_temperature;BME280_humidity;BME280_pressure;Samples;Min_cycle;Max_cycle;Signal;HPM_P1;HPM_P2
2021/11/06 00:02:20;;;;;;;25.80;14.02;;;;;;;;;;5011331;28;20467;-67
2021/11/06 00:04:45;;;;;;;25.80;14.50;;;;;;;;;;5011604;28;20056;-64
2021/11/06 00:07:11;;;;;;;32.35;14.70;;;;;;;;;;5011551;28;20032;-64
2021/11/06 00:09:36;;;;;;;32.40;13.48;;;;;;;;;;5011903;28;20025;-66
2021/11/06 00:12:01;;;;;;;29.65;11.98;;;;;;;;;;5011333;28;20561;-64
2021/11/06 00:14:26;;;;;;;35.28;13.25;;;;;;;;;;5011370;28;20490;-67
2021/11/06 00:16:53;;;;;;;30.70;13.55;;;;;;;;;;5011952;28;20026;-64
2021/11/06 00:19:18;;;;;;;25.60;13.02;;;;;;;;;;5011523;28;20029;-64
2021/11/06 00:21:43;;;;;;;28.52;13.30;;;;;;;;;;5011533;28;20025;-66
2021/11/06 00:24:09;;;;;;;21.92;12.23;;;;;;;;;;5011736;28;20018;-66
2021/11/06 00:26:34;;;;;;;35.40;14.00;;;;;;;;;;5010306;28;20030;-65
2021/11/06 00:28:59;;;;;;;30.80;13.13;;;;;;;;;;5010950;28;20132;-65
2021/11/06 00:31:24;;;;;;;28.90;13.13;;;;;;;;;;5010980;28;20036;-64
2021/11/06 00:33:50;;;;;;;30.27;13.20;;;;;;;;;;5010917;28;20382;-64
2021/11/06 00:36:15;;;;;;;28.15;12.52;;;;;;;;;;5010947;28;20386;-64
2021/11/06 00:38:40;;;;;;;28.73;12.77;;;;;;;;;;5013649;28;20037;-65
2021/11/06 00:41:05;;;;;;;29.70;12.45;;;;;;;;;;5011134;28;20026;-66
2021/11/06 00:43:30;;;;;;;23.77;12.15;;;;;;;;;;5010537;28;20045;-64
2021/11/06 00:45:56;;;;;;;23.98;11.90;;;;;;;;;;5011741;28;20370;-65
2021/11/06 00:48:21;;;;;;;24.88;12.88;;;;;;;;;;5011265;28;20482;-64
2021/11/06 00:50:46;;;;;;;25.43;12.13;;;;;;;;;;5010394;28;20044;-66
2021/11/06 00:53:11;;;;;;;24.92;12.75;;;;;;;;;;5009676;28;20319;-64
2021/11/06 00:55:36;;;;;;;23.92;12.32;;;;;;;;;;5010827;28;20022;-64
2021/11/06 00:58:02;;;;;;;24.85;12.60;;;;;;;;;;5013221;23;20069;-88
2021/11/06 01:00:27;;;;;;;28.58;12.27;;;;;;;;;;4989164;28;20105;-89
2021/11/06 01:02:52;;;;;;;27.17;12.85;;;;;;;;;;5000556;28;20521;-89
2021/11/06 01:05:21;;;;;;;28.45;13.18;;;;;;;;;;5010427;28;20025;-90
2021/11/06 01:07:46;;;;;;;28.33;13.35;;;;;;;;;;4993394;28;20034;-88
2021/11/06 01:10:12;;;;;;;23.55;12.38;;;;;;;;;;4988573;28;20030;-89
2021/11/06 01:12:38;;;;;;;27.98;13.20;;;;;;;;;;4988452;28;20026;-89
2021/11/06 01:15:04;;;;;;;24.27;12.52;;;;;;;;;;5024565;23;21643;-68
2021/11/06 01:17:29;;;;;;;22.77;11.52;;;;;;;;;;5029282;28;20552;-68
2021/11/06 01:19:55;;;;;;;26.20;12.55;;;;;;;;;;5025219;28;20036;-68
2021/11/06 01:22:20;;;;;;;27.52;12.50;;;;;;;;;;5029795;28;20024;-68
2021/11/06 01:24:45;;;;;;;28.48;12.20;;;;;;;;;;5029897;28;20028;-68
2021/11/06 01:27:11;;;;;;;25.55;12.77;;;;;;;;;;5029686;28;20021;-68
2021/11/06 01:29:37;;;;;;;27.60;12.55;;;;;;;;;;5030602;28;20697;-68
2021/11/06 01:32:03;;;;;;;26.13;13.13;;;;;;;;;;5029825;28;20104;-68
2021/11/06 01:34:28;;;;;;;24.45;11.95;;;;;;;;;;5030308;28;20100;-68
2021/11/06 01:36:53;;;;;;;27.20;12.77;;;;;;;;;;5029503;28;20378;-68
2021/11/06 01:39:18;;;;;;;26.83;13.57;;;;;;;;;;5029388;28;20018;-68
2021/11/06 01:41:43;;;;;;;33.63;13.40;;;;;;;;;;5030074;28;20022;-68
2021/11/06 01:44:09;;;;;;;30.88;13.43;;;;;;;;;;5030046;28;20029;-68
2021/11/06 01:46:34;;;;;;;31.80;13.07;;;;;;;;;;5030259;28;20043;-68
2021/11/06 01:48:59;;;;;;;37.53;13.20;;;;;;;;;;5043446;28;20018;-68
2021/11/06 01:51:25;;;;;;;32.22;14.20;;;;;;;;;;5033728;28;20053;-68
2021/11/06 01:53:50;;;;;;;31.45;14.57;;;;;;;;;;5033555;28;20100;-68
2021/11/06 01:56:16;;;;;;;32.85;13.48;;;;;;;;;;5033267;28;20172;-68
2021/11/06 01:58:41;;;;;;;30.23;12.95;;;;;;;;;;5033788;28;20021;-68
2021/11/06 02:01:07;;;;;;;29.45;12.82;;;;;;;;;;5033608;28;20022;-68
2021/11/06 02:03:34;;;;;;;27.52;13.63;;;;;;;;;;5049488;28;20024;-68
2021/11/06 02:05:59;;;;;;;28.48;13.63;;;;;;;;;;5033577;28;20009;-68
2021/11/06 02:08:24;;;;;;;29.92;13.13;;;;;;;;;;5033202;28;20033;-68
2021/11/06 02:10:50;;;;;;;31.08;13.10;;;;;;;;;;5033417;28;20009;-68
2021/11/06 02:13:15;;;;;;;31.20;13.00;;;;;;;;;;5031605;28;20112;-68
2021/11/06 02:15:41;;;;;;;37.78;14.05;;;;;;;;;;5030593;28;20034;-68
2021/11/06 02:18:06;;;;;;;28.92;14.00;;;;;;;;;;5030640;28;20104;-68
2021/11/06 02:20:31;;;;;;;30.42;14.45;;;;;;;;;;5033896;28;20045;-68
2021/11/06 02:22:57;;;;;;;30.88;12.23;;;;;;;;;;5032830;28;20032;-68
2021/11/06 02:25:22;;;;;;;27.67;13.40;;;;;;;;;;5033576;28;20632;-68
2021/11/06 02:27:47;;;;;;;31.63;12.80;;;;;;;;;;5032706;28;20079;-68
2021/11/06 02:30:13;;;;;;;27.10;12.77;;;;;;;;;;5033078;28;20410;-68
2021/11/06 02:32:39;;;;;;;27.25;12.18;;;;;;;;;;5032722;28;20084;-68
2021/11/06 02:35:05;;;;;;;25.52;11.93;;;;;;;;;;5032504;28;20029;-68
2021/11/06 02:37:30;;;;;;;28.17;11.60;;;;;;;;;;5032759;28;20029;-68
2021/11/06 02:39:55;;;;;;;23.90;10.77;;;;;;;;;;5032684;28;20524;-68
2021/11/06 02:42:21;;;;;;;20.30;11.48;;;;;;;;;;5032249;28;20466;-68
2021/11/06 02:44:46;;;;;;;27.17;12.05;;;;;;;;;;5032716;28;20421;-68
2021/11/06 02:47:11;;;;;;;24.20;11.40;;;;;;;;;;5032175;28;20033;-68
2021/11/06 02:49:36;;;;;;;27.98;11.10;;;;;;;;;;5033131;28;20017;-68
2021/11/06 02:52:02;;;;;;;32.15;11.77;;;;;;;;;;5032505;28;20029;-68
2021/11/06 02:54:27;;;;;;;28.70;11.93;;;;;;;;;;5032950;28;20025;-68
2021/11/06 02:56:53;;;;;;;27.27;11.80;;;;;;;;;;5032397;28;20068;-68
2021/11/06 02:59:18;;;;;;;26.02;13.10;;;;;;;;;;5032433;28;20096;-68
2021/11/06 03:01:44;;;;;;;26.30;11.95;;;;;;;;;;5032847;28;20623;-68
2021/11/06 03:04:10;;;;;;;26.20;11.73;;;;;;;;;;5032144;28;20021;-68
2021/11/06 03:06:35;;;;;;;28.17;11.32;;;;;;;;;;5032598;28;20552;-68
2021/11/06 03:09:00;;;;;;;24.65;11.40;;;;;;;;;;5024313;28;20040;-68
2021/11/06 03:11:26;;;;;;;24.50;10.65;;;;;;;;;;5029065;28;20630;-68
2021/11/06 03:13:52;;;;;;;23.80;11.55;;;;;;;;;;5032231;28;20021;-68
2021/11/06 03:16:17;;;;;;;23.23;10.52;;;;;;;;;;5031923;28;20120;-68
2021/11/06 03:18:42;;;;;;;31.45;12.15;;;;;;;;;;5032795;28;20093;-68
2021/11/06 03:21:08;;;;;;;30.15;11.93;;;;;;;;;;5034208;28;20061;-68
2021/11/06 03:23:33;;;;;;;25.67;12.40;;;;;;;;;;5031561;28;20037;-68
2021/11/06 03:25:58;;;;;;;28.15;11.65;;;;;;;;;;5031980;28;20013;-68
2021/11/06 03:28:24;;;;;;;23.05;11.35;;;;;;;;;;5032329;28;20039;-68
2021/11/06 03:30:49;;;;;;;27.55;10.77;;;;;;;;;;5032087;28;20028;-68
2021/11/06 03:33:14;;;;;;;22.55;9.98;;;;;;;;;;5031764;28;20057;-68
2021/11/06 03:35:40;;;;;;;24.23;9.77;;;;;;;;;;5033414;28;20111;-68
2021/11/06 03:38:05;;;;;;;23.20;11.13;;;;;;;;;;5034215;28;20026;-68
2021/11/06 03:40:30;;;;;;;23.77;10.98;;;;;;;;;;5030192;28;20052;-68
2021/11/06 03:42:56;;;;;;;24.42;11.00;;;;;;;;;;5030961;28;20029;-68
2021/11/06 03:45:21;;;;;;;35.33;10.32;;;;;;;;;;5032093;28;20075;-68
2021/11/06 03:47:47;;;;;;;22.63;11.52;;;;;;;;;;5032069;28;20720;-68
2021/11/06 03:50:12;;;;;;;18.85;9.27;;;;;;;;;;5031599;28;20029;-68
2021/11/06 03:52:38;;;;;;;24.00;11.13;;;;;;;;;;5030889;28;20211;-68
2021/11/06 03:55:04;;;;;;;28.13;11.70;;;;;;;;;;5030402;28;20029;-68
2021/11/06 03:57:29;;;;;;;33.47;10.85;;;;;;;;;;5031063;28;20072;-68
2021/11/06 03:59:54;;;;;;;20.60;10.45;;;;;;;;;;5031120;28;20064;-68
2021/11/06 04:02:20;;;;;;;22.88;10.13;;;;;;;;;;5030789;28;20025;-68
2021/11/06 04:04:45;;;;;;;20.70;9.98;;;;;;;;;;5031417;28;20582;-68
2021/11/06 04:07:10;;;;;;;27.45;10.30;;;;;;;;;;5030620;28;20041;-68
2021/11/06 04:09:35;;;;;;;23.52;10.48;;;;;;;;;;5030436;28;20056;-68
2021/11/06 04:12:01;;;;;;;23.90;10.32;;;;;;;;;;5029752;28;20118;-68
2021/11/06 04:14:26;;;;;;;20.90;9.10;;;;;;;;;;5031366;28;20025;-68
2021/11/06 04:16:51;;;;;;;30.17;10.70;;;;;;;;;;5028308;28;20025;-68
2021/11/06 04:19:16;;;;;;;24.73;9.95;;;;;;;;;;5011713;28;20100;-68
2021/11/06 04:21:41;;;;;;;29.40;11.02;;;;;;;;;;5011706;28;20022;-68
2021/11/06 04:24:07;;;;;;;27.73;10.32;;;;;;;;;;5020491;28;20049;-68
2021/11/06 04:26:32;;;;;;;20.83;9.48;;;;;;;;;;5031092;28;20490;-68
2021/11/06 04:28:57;;;;;;;25.85;10.13;;;;;;;;;;5031309;28;20071;-68
2021/11/06 04:31:23;;;;;;;25.88;10.30;;;;;;;;;;5031250;28;20025;-68
2021/11/06 04:33:48;;;;;;;27.35;10.77;;;;;;;;;;5030382;28;20075;-68
2021/11/06 04:36:13;;;;;;;22.00;9.77;;;;;;;;;;5030672;28;20029;-68
2021/11/06 04:38:38;;;;;;;27.80;10.82;;;;;;;;;;5030998;28;20381;-68
2021/11/06 04:41:04;;;;;;;23.87;10.27;;;;;;;;;;5033724;28;20414;-68
2021/11/06 04:43:29;;;;;;;21.50;10.05;;;;;;;;;;5030389;28;20359;-68
2021/11/06 04:45:54;;;;;;;34.22;10.93;;;;;;;;;;5030101;28;20009;-68
2021/11/06 04:48:19;;;;;;;26.92;10.82;;;;;;;;;;5031461;28;20018;-68
2021/11/06 04:50:45;;;;;;;25.75;11.27;;;;;;;;;;5040921;28;20485;-68
2021/11/06 04:53:10;;;;;;;21.20;10.13;;;;;;;;;;5039161;28;20025;-68
2021/11/06 04:55:35;;;;;;;29.55;9.68;;;;;;;;;;5030393;28;20497;-68
2021/11/06 04:58:00;;;;;;;24.63;10.63;;;;;;;;;;5029626;28;20036;-68
2021/11/06 05:00:26;;;;;;;23.70;9.95;;;;;;;;;;5030003;28;20025;-68
2021/11/06 05:02:51;;;;;;;24.27;10.40;;;;;;;;;;5030326;28;20663;-68
2021/11/06 05:05:17;;;;;;;17.80;8.82;;;;;;;;;;5029953;28;20053;-68
2021/11/06 05:07:43;;;;;;;28.08;10.75;;;;;;;;;;5017909;28;20115;-68
2021/11/06 05:10:08;;;;;;;25.17;9.35;;;;;;;;;;5029262;28;20061;-68
2021/11/06 05:12:35;;;;;;;21.00;9.30;;;;;;;;;;5034899;28;20029;-68
2021/11/06 05:15:00;;;;;;;24.23;9.68;;;;;;;;;;5029858;28;20025;-68
2021/11/06 05:17:25;;;;;;;22.90;9.38;;;;;;;;;;5029581;28;20112;-68
2021/11/06 05:19:51;;;;;;;19.15;9.07;;;;;;;;;;5030127;28;20405;-68
2021/11/06 05:22:17;;;;;;;21.75;9.25;;;;;;;;;;5029555;28;20048;-68
2021/11/06 05:24:42;;;;;;;23.67;9.00;;;;;;;;;;5029860;28;20044;-68
2021/11/06 05:27:07;;;;;;;25.48;9.73;;;;;;;;;;5029898;28;20083;-68
2021/11/06 05:29:33;;;;;;;31.05;10.07;;;;;;;;;;5029657;28;20025;-68
2021/11/06 05:31:58;;;;;;;34.88;10.52;;;;;;;;;;5029902;28;20033;-68
2021/11/06 05:34:24;;;;;;;31.48;12.98;;;;;;;;;;5029370;28;20031;-68
2021/11/06 05:36:49;;;;;;;25.52;10.38;;;;;;;;;;5025912;28;20035;-68
2021/11/06 05:39:14;;;;;;;24.80;10.52;;;;;;;;;;5029544;28;20017;-68
2021/11/06 05:41:39;;;;;;;31.63;13.65;;;;;;;;;;5029657;28;20390;-68
2021/11/06 05:44:05;;;;;;;36.63;13.23;;;;;;;;;;5029821;28;20026;-68
2021/11/06 05:46:30;;;;;;;35.92;12.68;;;;;;;;;;5029580;28;20040;-68
2021/11/06 05:48:55;;;;;;;32.00;14.32;;;;;;;;;;5029742;28;20088;-68
2021/11/06 05:51:20;;;;;;;38.42;13.77;;;;;;;;;;5029389;28;20453;-68
2021/11/06 05:53:46;;;;;;;35.92;13.65;;;;;;;;;;5029441;28;20096;-68
2021/11/06 05:56:11;;;;;;;37.38;14.00;;;;;;;;;;5030040;28;20136;-68
2021/11/06 05:58:36;;;;;;;41.33;14.45;;;;;;;;;;5029282;28;20029;-68
2021/11/06 06:01:02;;;;;;;36.60;14.67;;;;;;;;;;5029916;28;20096;-68
2021/11/06 06:03:27;;;;;;;43.55;13.70;;;;;;;;;;5029140;28;20260;-68
2021/11/06 06:05:52;;;;;;;42.08;14.98;;;;;;;;;;5029497;28;20025;-68
2021/11/06 06:08:18;;;;;;;34.85;14.27;;;;;;;;;;5029010;28;20056;-68
2021/11/06 06:10:43;;;;;;;33.22;15.18;;;;;;;;;;5029881;28;20026;-68
2021/11/06 06:13:08;;;;;;;33.75;14.45;;;;;;;;;;5029259;28;20064;-68
2021/11/06 06:15:34;;;;;;;29.52;12.05;;;;;;;;;;5029418;28;20475;-68
2021/11/06 06:17:59;;;;;;;34.00;14.15;;;;;;;;;;5029167;28;20504;-68
2021/11/06 06:20:24;;;;;;;33.72;13.07;;;;;;;;;;5029194;28;20406;-68
2021/11/06 06:22:50;;;;;;;37.65;12.48;;;;;;;;;;5029178;28;20097;-68
2021/11/06 06:25:16;;;;;;;46.97;15.95;;;;;;;;;;5029274;28;20034;-68
2021/11/06 06:27:41;;;;;;;39.47;15.00;;;;;;;;;;5029382;28;20022;-68
2021/11/06 06:30:08;;;;;;;47.50;15.50;;;;;;;;;;5029274;28;20096;-68
2021/11/06 06:32:33;;;;;;;34.35;14.15;;;;;;;;;;5028798;28;20096;-68
2021/11/06 06:34:58;;;;;;;38.90;13.40;;;;;;;;;;5030571;28;20033;-68
2021/11/06 06:37:24;;;;;;;44.90;15.85;;;;;;;;;;5032947;28;20086;-68
2021/11/06 06:39:49;;;;;;;44.38;15.18;;;;;;;;;;5033039;28;20032;-68
2021/11/06 06:42:14;;;;;;;43.63;15.02;;;;;;;;;;5031972;28;20026;-68
2021/11/06 06:44:40;;;;;;;38.55;15.65;;;;;;;;;;5032837;28;20422;-68
2021/11/06 06:47:05;;;;;;;41.00;15.70;;;;;;;;;;5032962;28;20089;-68
2021/11/06 06:49:30;;;;;;;49.90;17.05;;;;;;;;;;5032743;28;20026;-68
2021/11/06 06:51:55;;;;;;;45.83;16.00;;;;;;;;;;5032426;28;20025;-68
2021/11/06 06:54:20;;;;;;;36.67;15.57;;;;;;;;;;5032271;28;20025;-68
2021/11/06 06:56:46;;;;;;;41.65;14.05;;;;;;;;;;5032700;28;20692;-68
2021/11/06 06:59:12;;;;;;;41.05;16.52;;;;;;;;;;5045023;23;20107;-65
2021/11/06 07:01:38;;;;;;;46.53;16.00;;;;;;;;;;5031602;28;20028;-64
2021/11/06 07:04:03;;;;;;;36.50;13.45;;;;;;;;;;5031793;28;20026;-65
2021/11/06 07:06:28;;;;;;;48.45;15.82;;;;;;;;;;5031879;28;20358;-66
2021/11/06 07:08:53;;;;;;;22.40;8.00;;;;;;;;;;5032156;28;20374;-65
2021/11/06 07:11:19;;;;;;;38.67;15.65;;;;;;;;;;5032253;28;20025;-66
2021/11/06 07:13:45;;;;;;;41.53;15.02;;;;;;;;;;5031764;28;20025;-65
2021/11/06 07:16:11;;;;;;;36.42;14.82;;;;;;;;;;5029528;28;20033;-64
2021/11/06 07:18:37;;;;;;;37.55;14.85;;;;;;;;;;5031083;28;20080;-65
2021/11/06 07:21:02;;;;;;;32.53;12.18;;;;;;;;;;5032203;28;20390;-65
2021/11/06 07:23:27;;;;;;;31.40;13.20;;;;;;;;;;5031739;28;20029;-65
2021/11/06 07:25:59;;;;;;;27.73;13.07;;;;;;;;;;5030569;28;20025;-64
2021/11/06 07:28:24;;;;;;;39.53;15.20;;;;;;;;;;5027236;28;20049;-65
2021/11/06 07:30:50;;;;;;;28.80;10.70;;;;;;;;;;5028747;28;20119;-66
2021/11/06 07:33:15;;;;;;;31.13;13.30;;;;;;;;;;5031923;28;20031;-65
2021/11/06 07:35:40;;;;;;;33.07;13.33;;;;;;;;;;5031964;28;20252;-67
2021/11/06 07:38:05;;;;;;;34.20;11.93;;;;;;;;;;5034161;28;20414;-64
2021/11/06 07:40:30;;;;;;;30.08;13.77;;;;;;;;;;5032005;28;20018;-66
2021/11/06 07:42:56;;;;;;;29.23;10.35;;;;;;;;;;5029465;28;20017;-65
2021/11/06 07:45:21;;;;;;;25.30;7.20;;;;;;;;;;5031219;28;20029;-65
2021/11/06 07:47:46;;;;;;;24.67;11.75;;;;;;;;;;5030690;28;20034;-67
2021/11/06 07:50:13;;;;;;;34.17;11.15;;;;;;;;;;5037071;28;20021;-64
2021/11/06 07:52:38;;;;;;;18.70;9.20;;;;;;;;;;5037845;28;20019;-67
2021/11/06 07:55:04;;;;;;;23.38;10.82;;;;;;;;;;5031033;28;20105;-65
2021/11/06 07:57:31;;;;;;;15.57;7.85;;;;;;;;;;5029898;28;20031;-65
2021/11/06 07:59:58;;;;;;;20.10;9.80;;;;;;;;;;5031026;28;20418;-66
2021/11/06 08:02:23;;;;;;;24.45;11.00;;;;;;;;;;5030868;28;20033;-66
2021/11/06 08:04:49;;;;;;;26.65;11.57;;;;;;;;;;5031907;28;20060;-64
2021/11/06 08:07:14;;;;;;;23.07;10.50;;;;;;;;;;5031096;28;20029;-65
2021/11/06 08:09:39;;;;;;;16.90;8.83;;;;;;;;;;5038827;28;20379;-66
2021/11/06 08:12:04;;;;;;;12.90;7.13;;;;;;;;;;5030818;28;20272;-65
2021/11/06 08:14:30;;;;;;;17.92;9.55;;;;;;;;;;5029955;28;20272;-65
2021/11/06 08:17:00;;;;;;;13.73;6.00;;;;;;;;;;5031116;28;20044;-65
2021/11/06 08:19:25;;;;;;;14.90;8.82;;;;;;;;;;5030269;28;20370;-66
2021/11/06 08:21:51;;;;;;;16.83;8.65;;;;;;;;;;5025926;28;20036;-65
2021/11/06 08:24:16;;;;;;;17.58;9.45;;;;;;;;;;5025465;28;20014;-65
2021/11/06 08:26:41;;;;;;;18.27;7.97;;;;;;;;;;5023888;28;20017;-66
2021/11/06 08:29:07;;;;;;;25.67;8.98;;;;;;;;;;5023757;28;20389;-66
2021/11/06 08:31:33;;;;;;;13.77;7.00;;;;;;;;;;5026403;28;20124;-65
2021/11/06 08:33:58;;;;;;;14.55;8.82;;;;;;;;;;5026535;28;20359;-65
2021/11/06 08:36:23;;;;;;;11.47;5.93;;;;;;;;;;5024655;28;20041;-65
2021/11/06 08:38:48;;;;;;;19.38;8.93;;;;;;;;;;5027693;28;20264;-66
2021/11/06 08:41:14;;;;;;;17.58;9.05;;;;;;;;;;5027430;28;20026;-67
2021/11/06 08:43:39;;;;;;;17.60;9.50;;;;;;;;;;5029463;28;20790;-65
2021/11/06 08:46:05;;;;;;;20.05;10.13;;;;;;;;;;5023122;28;20371;-66
2021/11/06 08:48:30;;;;;;;15.93;7.70;;;;;;;;;;5027150;28;20778;-66
2021/11/06 08:50:55;;;;;;;21.25;7.10;;;;;;;;;;5027577;28;20040;-65
2021/11/06 08:53:20;;;;;;;14.23;7.05;;;;;;;;;;5025833;28;20363;-67
2021/11/06 08:55:46;;;;;;;20.20;8.33;;;;;;;;;;5028781;28;20025;-65
2021/11/06 08:58:11;;;;;;;21.67;8.35;;;;;;;;;;5027910;28;20319;-68
2021/11/06 09:00:41;;;;;;;15.73;7.82;;;;;;;;;;5026496;28;20030;-65
2021/11/06 09:03:14;;;;;;;11.27;6.65;;;;;;;;;;5024571;28;20047;-65
2021/11/06 09:05:40;;;;;;;15.85;8.48;;;;;;;;;;5028567;28;20029;-67
2021/11/06 09:08:05;;;;;;;11.05;5.68;;;;;;;;;;5028608;28;20025;-67
2021/11/06 09:10:31;;;;;;;17.30;6.57;;;;;;;;;;5028433;28;20140;-64
2021/11/06 09:12:56;;;;;;;9.93;5.72;;;;;;;;;;5027317;28;20025;-65
2021/11/06 09:15:22;;;;;;;11.30;4.22;;;;;;;;;;5023324;28;20107;-66
2021/11/06 09:17:49;;;;;;;28.60;6.85;;;;;;;;;;5028342;28;20144;-64
2021/11/06 09:20:14;;;;;;;11.60;5.13;;;;;;;;;;5028663;28;20100;-67
2021/11/06 09:22:39;;;;;;;11.18;5.95;;;;;;;;;;5028047;28;20093;-64
2021/11/06 09:25:05;;;;;;;13.75;6.60;;;;;;;;;;5028271;28;20092;-66
2021/11/06 09:27:30;;;;;;;5.25;3.22;;;;;;;;;;5027978;28;20117;-65
2021/11/06 09:29:56;;;;;;;12.52;5.70;;;;;;;;;;5028723;28;20512;-65
2021/11/06 09:32:22;;;;;;;16.75;7.55;;;;;;;;;;5027455;28;20033;-66
2021/11/06 09:34:47;;;;;;;17.27;6.70;;;;;;;;;;5027300;28;20386;-66
2021/11/06 09:37:12;;;;;;;9.30;4.88;;;;;;;;;;5031802;28;20027;-66
2021/11/06 09:39:37;;;;;;;16.45;6.60;;;;;;;;;;5027524;28;20088;-66
2021/11/06 09:42:04;;;;;;;13.32;5.45;;;;;;;;;;5027898;28;20029;-66
2021/11/06 09:44:30;;;;;;;11.68;6.45;;;;;;;;;;5027304;28;20028;-67
2021/11/06 09:46:56;;;;;;;13.68;7.63;;;;;;;;;;5031929;28;20037;-67
2021/11/06 09:49:22;;;;;;;13.85;7.03;;;;;;;;;;5045501;28;20032;-66
2021/11/06 09:51:47;;;;;;;11.23;6.00;;;;;;;;;;5038894;28;20377;-67
2021/11/06 09:54:12;;;;;;;15.18;3.88;;;;;;;;;;5039621;28;20021;-66
2021/11/06 09:56:37;;;;;;;18.45;5.55;;;;;;;;;;5024033;28;20068;-65
2021/11/06 09:59:03;;;;;;;15.55;8.07;;;;;;;;;;5025893;28;20026;-65
2021/11/06 10:01:30;;;;;;;14.43;6.82;;;;;;;;;;5026324;28;20040;-66
2021/11/06 10:03:56;;;;;;;18.20;7.88;;;;;;;;;;5024907;28;20485;-66
2021/11/06 10:06:22;;;;;;;13.43;8.00;;;;;;;;;;5027577;28;20028;-66
2021/11/06 10:08:49;;;;;;;19.67;7.88;;;;;;;;;;5027780;28;20041;-65
2021/11/06 10:11:19;;;;;;;11.18;6.20;;;;;;;;;;5031823;28;20108;-68
2021/11/06 10:13:44;;;;;;;;;;;;;;;;;;5032936;28;20041;-67
2021/11/06 10:16:09;;;;;;;11.20;4.22;;;;;;;;;;5033316;28;19905;-65
2021/11/06 10:18:35;;;;;;;12.40;6.10;;;;;;;;;;5033384;28;20017;-67
2021/11/06 10:21:01;;;;;;;19.08;5.82;;;;;;;;;;5033396;28;20017;-67
2021/11/06 10:23:37;;;;;;;9.20;5.43;;;;;;;;;;5033389;28;20028;-66
2021/11/06 10:26:11;;;;;;;7.25;2.55;;;;;;;;;;5032879;28;20022;-65
2021/11/06 10:28:36;;;;;;;7.38;3.92;;;;;;;;;;5032990;28;20028;-68
2021/11/06 10:31:03;;;;;;;4.15;1.95;;;;;;;;;;5032564;28;20726;-66
2021/11/06 10:33:29;;;;;;;8.25;3.70;;;;;;;;;;5023149;28;20037;-67
2021/11/06 10:35:54;;;;;;;8.30;3.70;;;;;;;;;;5032814;28;20033;-67
2021/11/06 10:38:21;;;;;;;6.45;2.08;;;;;;;;;;5032826;28;20486;-67
2021/11/06 10:40:55;;;;;;;10.63;3.65;;;;;;;;;;5032931;28;20022;-66
2021/11/06 10:43:22;;;;;;;3.50;1.85;;;;;;;;;;5032153;28;20025;-68
2021/11/06 10:45:47;;;;;;;3.75;1.17;;;;;;;;;;5032609;28;20047;-67
2021/11/06 10:48:15;;;;;;;3.90;1.98;;;;;;;;;;5033249;28;20107;-66
2021/11/06 10:50:49;;;;;;;3.75;1.88;;;;;;;;;;5032351;28;20029;-65
2021/11/06 10:53:16;;;;;;;7.57;2.17;;;;;;;;;;5032319;28;20056;-67
2021/11/06 10:55:43;;;;;;;6.32;2.63;;;;;;;;;;5032562;28;20092;-67
2021/11/06 10:58:40;;;;;;;10.38;2.20;;;;;;;;;;5032417;28;20037;-67
2021/11/06 11:01:07;;;;;;;7.22;2.10;;;;;;;;;;5009412;28;20155;-65
2021/11/06 11:03:37;;;;;;;10.25;2.72;;;;;;;;;;5043967;28;20059;-68
2021/11/06 11:06:10;;;;;;;4.10;2.33;;;;;;;;;;5030362;28;20110;-67
2021/11/06 11:08:40;;;;;;;6.25;2.35;;;;;;;;;;5027291;28;20033;-68
2021/11/06 11:11:07;;;;;;;8.68;1.77;;;;;;;;;;5029326;28;20030;-66
2021/11/06 11:13:32;;;;;;;4.25;2.15;;;;;;;;;;5028064;28;20120;-67
2021/11/06 11:16:10;;;;;;;5.78;2.35;;;;;;;;;;5030668;28;20171;-66
2021/11/06 11:18:36;;;;;;;5.50;1.88;;;;;;;;;;5024832;28;20026;-65
2021/11/06 11:21:12;;;;;;;6.30;2.72;;;;;;;;;;5029676;28;20795;-66
2021/11/06 11:23:38;;;;;;;5.70;2.20;;;;;;;;;;5029707;28;20033;-66
2021/11/06 11:26:03;;;;;;;5.45;2.03;;;;;;;;;;5038038;28;20092;-66
2021/11/06 11:28:28;;;;;;;5.72;1.92;;;;;;;;;;5035629;28;20055;-67
2021/11/06 11:30:54;;;;;;;7.80;2.15;;;;;;;;;;5032782;28;20075;-66
2021/11/06 11:33:19;;;;;;;4.82;1.80;;;;;;;;;;5031098;28;20017;-68
2021/11/06 11:35:45;;;;;;;4.80;1.80;;;;;;;;;;5026681;28;20040;-67
2021/11/06 11:38:11;;;;;;;4.57;1.63;;;;;;;;;;5031357;28;20021;-66
2021/11/06 11:40:36;;;;;;;3.33;1.60;;;;;;;;;;5031712;28;20032;-65
2021/11/06 11:43:19;;;;;;;5.68;1.80;;;;;;;;;;5031642;28;20053;-65
2021/11/06 11:45:45;;;;;;;3.08;1.15;;;;;;;;;;5029463;28;20494;-67
2021/11/06 11:48:14;;;;;;;2.95;1.63;;;;;;;;;;5030079;28;20040;-68
2021/11/06 11:50:42;;;;;;;4.07;1.77;;;;;;;;;;5031655;28;20481;-68
2021/11/06 11:53:08;;;;;;;6.10;1.40;;;;;;;;;;5031206;28;20053;-68
2021/11/06 11:55:38;;;;;;;2.22;1.08;;;;;;;;;;5031445;28;20486;-68
2021/11/06 11:58:22;;;;;;;6.50;1.38;;;;;;;;;;5027801;28;20025;-67
2021/11/06 12:00:50;;;;;;;2.80;1.15;;;;;;;;;;5030489;28;20017;-66
2021/11/06 12:03:46;;;;;;;1.85;0.70;;;;;;;;;;5030628;28;20025;-67
2021/11/06 12:06:22;;;;;;;4.00;1.10;;;;;;;;;;5022140;28;20445;-67
2021/11/06 12:08:48;;;;;;;3.33;1.27;;;;;;;;;;5030627;28;20048;-65
2021/11/06 12:11:15;;;;;;;7.32;2.25;;;;;;;;;;5030048;28;20021;-65
2021/11/06 12:13:40;;;;;;;3.05;1.05;;;;;;;;;;5029932;28;20017;-66
2021/11/06 12:16:10;;;;;;;5.05;1.08;;;;;;;;;;5031081;28;20415;-65
2021/11/06 12:18:35;;;;;;;2.75;1.00;;;;;;;;;;5028238;28;20536;-66
2021/11/06 12:23:42;;;;;;;2.25;0.88;;;;;;;;;;5028938;28;20462;-65
2021/11/06 12:26:10;;;;;;;1.58;0.70;;;;;;;;;;5025443;28;20014;-65
2021/11/06 12:28:36;;;;;;;3.20;0.70;;;;;;;;;;5025218;28;20025;-65
2021/11/06 12:31:21;;;;;;;6.75;0.80;;;;;;;;;;5030324;28;20385;-66
2021/11/06 12:33:46;;;;;;;2.20;0.85;;;;;;;;;;5029522;28;20507;-65
2021/11/06 12:36:15;;;;;;;6.88;1.15;;;;;;;;;;5028005;28;20100;-65
2021/11/06 12:38:41;;;;;;;2.50;1.02;;;;;;;;;;5029653;28;20108;-65
2021/11/06 12:41:06;;;;;;;1.00;0.70;;;;;;;;;;5030339;28;20104;-66
2021/11/06 12:43:31;;;;;;;3.15;0.77;;;;;;;;;;5028534;28;20465;-66
2021/11/06 12:45:59;;;;;;;1.90;0.70;;;;;;;;;;5029476;28;20424;-65
2021/11/06 12:48:25;;;;;;;2.83;0.73;;;;;;;;;;5029938;28;20029;-66
2021/11/06 12:51:02;;;;;;;1.85;0.68;;;;;;;;;;5029610;28;20540;-65
2021/11/06 12:53:29;;;;;;;4.35;0.70;;;;;;;;;;5029790;28;20026;-67
2021/11/06 12:55:59;;;;;;;2.53;1.00;;;;;;;;;;5030093;28;20079;-67
2021/11/06 12:58:24;;;;;;;10.10;0.83;;;;;;;;;;5029741;28;20104;-67
2021/11/06 13:00:49;;;;;;;1.67;0.60;;;;;;;;;;5029646;28;20359;-67
2021/11/06 13:03:14;;;;;;;5.10;0.60;;;;;;;;;;5026714;28;20084;-67
2021/11/06 13:05:45;;;;;;;4.22;0.52;;;;;;;;;;5024879;28;20068;-67
2021/11/06 13:08:10;;;;;;;;;;;;;;;;;;5033132;28;20021;-67
2021/11/06 13:10:35;;;;;;;1.25;0.68;;;;;;;;;;5029000;28;19963;-68
2021/11/06 13:13:05;;;;;;;1.80;0.80;;;;;;;;;;5027823;28;20060;-66
2021/11/06 13:15:35;;;;;;;0.88;0.50;;;;;;;;;;5045136;28;20894;-67
2021/11/06 13:18:00;;;;;;;;;;;;;;;;;;5027715;28;20048;-67
2021/11/06 13:20:25;;;;;;;1.00;0.40;;;;;;;;;;5029714;28;19960;-68
2021/11/06 13:22:56;;;;;;;1.88;0.52;;;;;;;;;;5028994;28;20252;-68
2021/11/06 13:25:21;;;;;;;2.72;0.57;;;;;;;;;;5028436;28;20080;-68
2021/11/06 13:27:48;;;;;;;0.90;0.50;;;;;;;;;;5028171;28;20041;-68
2021/11/06 13:30:32;;;;;;;4.03;1.02;;;;;;;;;;5029513;28;20025;-68
2021/11/06 13:32:59;;;;;;;1.77;0.73;;;;;;;;;;5029174;28;20056;-68
2021/11/06 13:35:27;;;;;;;1.27;0.60;;;;;;;;;;5029511;28;20039;-68
2021/11/06 13:38:11;;;;;;;2.33;0.40;;;;;;;;;;5029039;28;20369;-68
2021/11/06 13:40:55;;;;;;;2.33;0.47;;;;;;;;;;5024983;28;20030;-68
2021/11/06 13:43:20;;;;;;;1.13;0.50;;;;;;;;;;5022249;28;20195;-67
2021/11/06 13:46:06;;;;;;;2.45;0.80;;;;;;;;;;5031633;28;20163;-67
2021/11/06 13:48:34;;;;;;;1.27;0.50;;;;;;;;;;5030205;28;20493;-66
2021/11/06 13:51:19;;;;;;;2.50;0.80;;;;;;;;;;5029549;28;20076;-68
2021/11/06 13:54:02;;;;;;;0.98;0.60;;;;;;;;;;5033134;28;20052;-67
2021/11/06 13:56:30;;;;;;;3.05;0.70;;;;;;;;;;5033072;28;20478;-66
2021/11/06 13:58:56;;;;;;;1.67;1.27;;;;;;;;;;5028547;28;20026;-67
2021/11/06 14:01:23;;;;;;;2.13;1.23;;;;;;;;;;5032813;28;20035;-67
2021/11/06 14:03:48;;;;;;;2.15;0.52;;;;;;;;;;5032474;28;20109;-66
2021/11/06 14:06:13;;;;;;;2.22;0.93;;;;;;;;;;5032792;28;20017;-67
2021/11/06 14:08:39;;;;;;;3.60;1.10;;;;;;;;;;5033311;28;20072;-68
2021/11/06 14:11:04;;;;;;;2.47;0.90;;;;;;;;;;5032894;28;20075;-66
2021/11/06 14:13:29;;;;;;;2.35;0.60;;;;;;;;;;5032433;28;20272;-67
2021/11/06 14:15:55;;;;;;;2.50;1.10;;;;;;;;;;5033270;28;20033;-66
2021/11/06 14:18:21;;;;;;;1.63;0.70;;;;;;;;;;5032592;28;20017;-67
2021/11/06 14:20:50;;;;;;;2.38;1.08;;;;;;;;;;5021508;28;20032;-65
2021/11/06 14:23:27;;;;;;;2.10;1.15;;;;;;;;;;5032906;28;20018;-68
2021/11/06 14:25:52;;;;;;;1.75;0.80;;;;;;;;;;5032153;28;20041;-68
2021/11/06 14:28:18;;;;;;;3.38;1.33;;;;;;;;;;5046083;28;20021;-67